Arrington, Illinois
Current Conditions -  °F | °C
As of 8:55 AM on Friday 31 Oct 2014 (Local Time) from KFWC Reporting Station
Overcast Overcast  
Wind Chill: 42°   Ceiling: 2000
Heat Index: 47°   Visibility: 10mi
Dew Point: 42°   Wind: 12mph
Humidity: 82%   Direction: 330°NNW
Pressure: 30.11"   Gusts: 23mph
Location:  38.4104°N, 88.5287°W
Report Text: KFWC 311355Z AUTO 33010G20KT 280V350 10SM OVC020 09/06 A3011 RMK AO1 T00850056
Loading
Personal Weather Stations






























Interactive Weather Map
Tropical Storm Tracking
New forecast layout! Learn more

10-Day Weather Forecast

Advertisements
Track Severe Weather on mobile